Time;durP1;ratioP1;P1;durP2;ratioP2;P2;SDS_P1;SDS_P2;PMS_P1;PMS_P2;Temp;Humidity;BMP_temperature;BMP_pressure;BME280_temperature;BME280_humidity;BME280_pressure;Samples;Min_cycle;Max_cycle;Signal;HPM_P1;HPM_P2
2023/07/05 00:00:55;;;;;;;11.55;6.75;;;;;;;;;;6214791;28;20046;-82
2023/07/05 00:03:56;;;;;;;11.13;6.50;;;;;;;;;;6214520;28;20046;-83
2023/07/05 00:06:58;;;;;;;12.90;6.60;;;;;;;;;;6219116;28;20042;-84
2023/07/05 00:10:00;;;;;;;10.40;6.45;;;;;;;;;;6217530;28;20057;-82
2023/07/05 00:13:03;;;;;;;12.17;6.83;;;;;;;;;;6208210;28;20049;-81
2023/07/05 00:16:04;;;;;;;7.77;5.83;;;;;;;;;;6215060;28;20437;-82
2023/07/05 00:19:07;;;;;;;11.55;6.93;;;;;;;;;;6215044;28;20081;-81
2023/07/05 00:22:09;;;;;;;11.00;6.85;;;;;;;;;;6199462;28;20121;-83
2023/07/05 00:25:11;;;;;;;11.88;6.35;;;;;;;;;;6210421;28;20052;-83
2023/07/05 00:28:13;;;;;;;9.93;6.97;;;;;;;;;;6208739;28;20046;-81
2023/07/05 00:31:14;;;;;;;11.70;7.15;;;;;;;;;;6211491;28;20053;-81
2023/07/05 00:34:16;;;;;;;13.55;7.20;;;;;;;;;;6209377;28;20049;-82
2023/07/05 00:37:18;;;;;;;14.10;7.18;;;;;;;;;;6208365;28;20069;-83
2023/07/05 00:40:20;;;;;;;13.45;6.57;;;;;;;;;;6209874;28;20065;-80
2023/07/05 00:43:22;;;;;;;12.80;6.72;;;;;;;;;;6214386;28;20401;-80
2023/07/05 00:46:30;;;;;;;15.38;7.63;;;;;;;;;;6220526;28;20077;-80
2023/07/05 00:49:35;;;;;;;10.65;6.38;;;;;;;;;;6215290;28;20066;-81
2023/07/05 00:52:36;;;;;;;13.35;6.68;;;;;;;;;;6222576;28;20073;-83
2023/07/05 00:55:45;;;;;;;13.15;6.93;;;;;;;;;;6203926;28;20188;-81
2023/07/05 00:58:50;;;;;;;10.35;6.72;;;;;;;;;;6216323;28;20061;-83
2023/07/05 01:01:52;;;;;;;11.70;6.70;;;;;;;;;;6209888;28;20057;-82
2023/07/05 01:05:05;;;;;;;10.35;6.38;;;;;;;;;;6210398;28;20416;-80
2023/07/05 01:08:07;;;;;;;;;;;;;;;;;;6209982;28;20126;-83
2023/07/05 01:11:23;;;;;;;10.48;6.15;;;;;;;;;;6209333;28;19929;-81
2023/07/05 01:14:50;;;;;;;11.52;6.28;;;;;;;;;;6210529;28;20057;-82
2023/07/05 01:18:09;;;;;;;10.75;5.90;;;;;;;;;;6206713;28;20120;-81
2023/07/05 01:21:43;;;;;;;8.25;5.53;;;;;;;;;;6213402;28;20053;-81
2023/07/05 01:25:00;;;;;;;8.77;5.43;;;;;;;;;;6209679;28;20056;-81
2023/07/05 01:28:09;;;;;;;9.45;4.88;;;;;;;;;;6239597;28;20548;-82
2023/07/05 01:31:42;;;;;;;7.57;4.53;;;;;;;;;;6214941;28;20131;-83
2023/07/05 01:35:00;;;;;;;11.73;5.60;;;;;;;;;;6229320;28;20078;-82
2023/07/05 01:38:05;;;;;;;7.45;4.57;;;;;;;;;;6186525;28;20520;-81
2023/07/05 01:41:07;;;;;;;7.05;4.40;;;;;;;;;;6210170;28;20062;-83
2023/07/05 01:44:12;;;;;;;6.93;3.92;;;;;;;;;;6215172;28;20120;-82
2023/07/05 01:47:20;;;;;;;5.68;3.45;;;;;;;;;;6212225;28;20376;-83
2023/07/05 01:50:34;;;;;;;6.50;3.28;;;;;;;;;;6231293;28;20049;-82
2023/07/05 01:53:51;;;;;;;3.88;3.13;;;;;;;;;;6212500;28;20057;-82
2023/07/05 01:57:16;;;;;;;4.53;3.33;;;;;;;;;;6211604;28;20046;-82
2023/07/05 02:00:20;;;;;;;4.15;2.60;;;;;;;;;;6212442;28;20050;-82
2023/07/05 02:03:23;;;;;;;5.03;2.90;;;;;;;;;;6201093;28;20048;-82
2023/07/05 02:06:27;;;;;;;5.20;3.03;;;;;;;;;;6200021;28;20041;-81
2023/07/05 02:09:29;;;;;;;3.83;2.47;;;;;;;;;;6215023;28;20065;-82
2023/07/05 02:12:30;;;;;;;4.60;2.67;;;;;;;;;;6216465;28;20464;-82
2023/07/05 02:15:32;;;;;;;6.70;2.72;;;;;;;;;;6209461;28;20077;-84
2023/07/05 02:18:34;;;;;;;3.90;2.38;;;;;;;;;;6196522;28;20112;-82
2023/07/05 02:21:36;;;;;;;5.05;2.70;;;;;;;;;;6213853;28;20049;-83
2023/07/05 02:24:38;;;;;;;3.83;2.47;;;;;;;;;;6213106;28;20057;-82
2023/07/05 02:27:39;;;;;;;3.83;2.50;;;;;;;;;;6212480;28;20071;-82
2023/07/05 02:30:41;;;;;;;4.28;2.67;;;;;;;;;;6215762;28;20041;-83
2023/07/05 02:33:44;;;;;;;4.20;2.53;;;;;;;;;;6215319;28;20105;-82
2023/07/05 02:36:45;;;;;;;3.50;2.65;;;;;;;;;;6212026;28;20108;-84
2023/07/05 02:39:55;;;;;;;3.30;2.20;;;;;;;;;;6202323;28;20121;-82
2023/07/05 02:42:59;;;;;;;2.88;2.30;;;;;;;;;;6230591;28;20046;-82
2023/07/05 02:46:01;;;;;;;5.88;2.30;;;;;;;;;;6210418;28;20416;-82
2023/07/05 02:49:04;;;;;;;3.30;2.17;;;;;;;;;;6197103;28;20049;-81
2023/07/05 02:52:06;;;;;;;4.57;2.27;;;;;;;;;;6227648;28;20060;-82
2023/07/05 02:55:08;;;;;;;2.50;2.20;;;;;;;;;;6211941;28;20461;-82
2023/07/05 02:58:10;;;;;;;3.63;2.08;;;;;;;;;;6198825;28;20056;-82
2023/07/05 03:01:11;;;;;;;3.38;2.00;;;;;;;;;;6213526;28;20782;-83
2023/07/05 03:04:14;;;;;;;3.55;2.05;;;;;;;;;;6227992;28;20046;-82
2023/07/05 03:07:16;;;;;;;4.20;2.30;;;;;;;;;;6224044;28;20052;-81
2023/07/05 03:10:17;;;;;;;3.53;2.17;;;;;;;;;;6213595;28;20065;-83
2023/07/05 03:13:20;;;;;;;3.17;1.77;;;;;;;;;;6219329;28;20053;-83
2023/07/05 03:16:22;;;;;;;2.63;2.13;;;;;;;;;;6223560;28;20073;-82
2023/07/05 03:19:24;;;;;;;2.72;1.83;;;;;;;;;;6194401;28;20042;-82
2023/07/05 03:22:26;;;;;;;4.28;1.95;;;;;;;;;;6205831;28;20050;-84
2023/07/05 03:25:28;;;;;;;2.60;2.00;;;;;;;;;;6190263;28;20057;-82
2023/07/05 03:28:32;;;;;;;2.10;1.70;;;;;;;;;;6214105;28;20050;-83
2023/07/05 03:31:34;;;;;;;3.35;2.00;;;;;;;;;;6197051;28;20128;-85
2023/07/05 03:34:36;;;;;;;1.88;1.60;;;;;;;;;;6195865;28;20050;-82
2023/07/05 03:37:38;;;;;;;3.17;2.07;;;;;;;;;;6215400;28;20052;-82
2023/07/05 03:40:39;;;;;;;2.38;1.70;;;;;;;;;;6211521;28;20076;-80
2023/07/05 03:43:43;;;;;;;2.15;1.63;;;;;;;;;;6210780;28;20045;-81
2023/07/05 03:46:44;;;;;;;3.35;1.80;;;;;;;;;;6214373;28;20045;-81
2023/07/05 03:49:46;;;;;;;2.47;1.55;;;;;;;;;;6212904;28;20046;-81
2023/07/05 03:52:48;;;;;;;3.50;2.05;;;;;;;;;;6216302;28;20057;-81
2023/07/05 03:55:50;;;;;;;2.53;1.75;;;;;;;;;;6217952;28;20052;-81
2023/07/05 03:58:52;;;;;;;1.90;1.70;;;;;;;;;;6212983;28;20168;-81
2023/07/05 04:01:55;;;;;;;2.65;1.65;;;;;;;;;;6207042;28;20444;-80
2023/07/05 04:04:57;;;;;;;2.40;1.90;;;;;;;;;;6210859;28;20042;-80
2023/07/05 04:07:58;;;;;;;2.80;1.73;;;;;;;;;;6209153;28;20138;-81
2023/07/05 04:11:00;;;;;;;2.38;1.70;;;;;;;;;;6193436;28;20120;-81
2023/07/05 04:14:02;;;;;;;2.92;1.80;;;;;;;;;;6216260;28;20115;-81
2023/07/05 04:17:04;;;;;;;5.10;2.33;;;;;;;;;;6204543;28;20092;-80
2023/07/05 04:20:06;;;;;;;2.10;1.90;;;;;;;;;;6208053;28;20096;-80
2023/07/05 04:23:08;;;;;;;3.88;2.50;;;;;;;;;;6206547;28;20046;-81
2023/07/05 04:26:13;;;;;;;4.13;2.22;;;;;;;;;;6215759;28;20069;-81
2023/07/05 04:29:15;;;;;;;3.78;2.30;;;;;;;;;;6212969;28;20042;-81
2023/07/05 04:32:16;;;;;;;2.75;2.10;;;;;;;;;;6214001;28;20042;-80
2023/07/05 04:35:19;;;;;;;5.15;2.00;;;;;;;;;;6211569;28;20077;-81
2023/07/05 04:38:21;;;;;;;3.22;2.10;;;;;;;;;;6212230;28;20038;-80
2023/07/05 04:41:23;;;;;;;3.15;1.95;;;;;;;;;;6213416;28;20041;-80
2023/07/05 04:44:24;;;;;;;3.53;2.30;;;;;;;;;;6214540;28;20116;-80
2023/07/05 04:47:26;;;;;;;3.13;2.20;;;;;;;;;;6209768;28;20053;-81
2023/07/05 04:50:28;;;;;;;3.33;2.30;;;;;;;;;;6214278;28;20037;-82
2023/07/05 04:53:29;;;;;;;2.95;2.13;;;;;;;;;;6215157;28;20074;-82
2023/07/05 04:56:32;;;;;;;3.33;2.20;;;;;;;;;;6216133;28;20054;-82
2023/07/05 04:59:33;;;;;;;2.05;1.60;;;;;;;;;;6213801;28;20153;-82
2023/07/05 05:02:35;;;;;;;5.05;1.80;;;;;;;;;;6199937;28;20053;-82
2023/07/05 05:05:37;;;;;;;2.17;1.65;;;;;;;;;;6214719;28;20048;-82
2023/07/05 05:08:39;;;;;;;2.00;1.30;;;;;;;;;;6215603;28;20120;-82
2023/07/05 05:11:40;;;;;;;1.85;1.50;;;;;;;;;;6211781;28;20463;-81
2023/07/05 05:14:42;;;;;;;6.95;1.73;;;;;;;;;;6211427;28;20053;-82
2023/07/05 05:17:44;;;;;;;2.88;1.60;;;;;;;;;;6212891;28;20077;-81
2023/07/05 05:20:46;;;;;;;1.70;1.42;;;;;;;;;;6212143;28;20038;-82
2023/07/05 05:23:48;;;;;;;3.10;1.57;;;;;;;;;;6211619;28;20042;-81
2023/07/05 05:26:49;;;;;;;2.30;1.50;;;;;;;;;;6214130;28;20445;-81
2023/07/05 05:29:51;;;;;;;2.08;1.40;;;;;;;;;;6199719;28;20046;-81
2023/07/05 05:32:53;;;;;;;2.83;1.52;;;;;;;;;;6214565;28;20523;-80
2023/07/05 05:35:55;;;;;;;3.80;1.30;;;;;;;;;;6217709;28;20124;-80
2023/07/05 05:38:56;;;;;;;3.20;1.50;;;;;;;;;;6216932;28;20080;-82
2023/07/05 05:41:58;;;;;;;3.88;1.70;;;;;;;;;;6215541;28;20050;-80
2023/07/05 05:44:59;;;;;;;2.38;1.75;;;;;;;;;;6214177;28;20046;-81
2023/07/05 05:48:01;;;;;;;2.42;1.73;;;;;;;;;;6214999;28;20042;-81
2023/07/05 05:51:03;;;;;;;3.10;1.90;;;;;;;;;;6216459;28;20050;-81
2023/07/05 05:54:05;;;;;;;2.88;1.63;;;;;;;;;;6216446;28;20092;-80
2023/07/05 05:57:07;;;;;;;2.53;1.67;;;;;;;;;;6215415;28;20073;-81
2023/07/05 06:00:10;;;;;;;3.58;1.48;;;;;;;;;;6212281;28;20119;-81
2023/07/05 06:03:12;;;;;;;3.15;1.98;;;;;;;;;;6197631;28;20078;-81
2023/07/05 06:06:14;;;;;;;3.70;1.88;;;;;;;;;;6213089;28;20112;-80
2023/07/05 06:09:15;;;;;;;3.72;1.70;;;;;;;;;;6214291;28;20170;-82
2023/07/05 06:12:17;;;;;;;3.35;1.90;;;;;;;;;;6203012;28;20062;-81
2023/07/05 06:15:19;;;;;;;5.60;2.20;;;;;;;;;;6199714;28;20046;-83
2023/07/05 06:18:21;;;;;;;3.50;2.30;;;;;;;;;;6211249;28;20049;-81
2023/07/05 06:21:23;;;;;;;4.50;1.90;;;;;;;;;;6210920;28;20042;-82
2023/07/05 06:24:24;;;;;;;4.03;2.03;;;;;;;;;;6202771;28;20095;-82
2023/07/05 06:27:26;;;;;;;3.92;2.05;;;;;;;;;;6213362;28;20046;-81
2023/07/05 06:30:28;;;;;;;4.88;2.38;;;;;;;;;;6212883;28;20084;-82
2023/07/05 06:33:31;;;;;;;3.95;2.30;;;;;;;;;;6213024;28;20048;-81
2023/07/05 06:36:33;;;;;;;4.13;2.05;;;;;;;;;;6228345;28;20049;-82
2023/07/05 06:39:36;;;;;;;5.53;2.47;;;;;;;;;;6220169;28;20058;-81
2023/07/05 06:42:39;;;;;;;3.35;2.00;;;;;;;;;;6209505;28;20112;-82
2023/07/05 06:45:48;;;;;;;4.53;2.45;;;;;;;;;;6194283;28;20034;-82
2023/07/05 06:48:50;;;;;;;4.80;2.50;;;;;;;;;;6213789;28;20084;-83
2023/07/05 06:51:54;;;;;;;4.60;2.50;;;;;;;;;;6214415;28;20121;-82
2023/07/05 06:54:55;;;;;;;4.90;2.30;;;;;;;;;;6207501;28;20042;-80
2023/07/05 06:57:57;;;;;;;5.28;1.98;;;;;;;;;;6208249;28;20046;-81
2023/07/05 07:00:59;;;;;;;3.92;2.17;;;;;;;;;;6203468;28;20046;-81
2023/07/05 07:04:05;;;;;;;3.63;2.10;;;;;;;;;;6212283;28;20057;-81
2023/07/05 07:07:07;;;;;;;5.30;2.13;;;;;;;;;;6198325;28;20041;-85
2023/07/05 07:10:09;;;;;;;4.13;1.90;;;;;;;;;;6209188;28;20045;-81
2023/07/05 07:13:14;;;;;;;4.78;1.88;;;;;;;;;;6207116;28;20046;-80
2023/07/05 07:16:17;;;;;;;3.65;1.98;;;;;;;;;;6209391;28;20042;-81
2023/07/05 07:19:18;;;;;;;4.40;1.95;;;;;;;;;;6209325;28;20042;-80
2023/07/05 07:22:20;;;;;;;4.47;1.88;;;;;;;;;;6193475;28;20057;-79
2023/07/05 07:25:22;;;;;;;3.75;2.03;;;;;;;;;;6206091;28;20126;-79
2023/07/05 07:28:24;;;;;;;3.65;1.70;;;;;;;;;;6214266;28;20062;-82
2023/07/05 07:31:31;;;;;;;4.53;1.85;;;;;;;;;;6204062;28;20057;-80
2023/07/05 07:34:32;;;;;;;4.10;2.20;;;;;;;;;;6205431;28;20046;-78
2023/07/05 07:37:34;;;;;;;3.55;1.90;;;;;;;;;;6204925;28;20535;-81
2023/07/05 07:40:36;;;;;;;2.88;1.77;;;;;;;;;;6212260;28;20045;-79
2023/07/05 07:43:38;;;;;;;3.63;1.90;;;;;;;;;;6208817;28;20045;-79
2023/07/05 07:46:40;;;;;;;3.55;1.92;;;;;;;;;;6208103;28;20038;-79
2023/07/05 07:49:42;;;;;;;4.47;1.90;;;;;;;;;;6208583;28;20041;-80
2023/07/05 07:52:43;;;;;;;3.53;1.50;;;;;;;;;;6217575;28;20041;-79
2023/07/05 07:55:45;;;;;;;3.67;1.65;;;;;;;;;;6212259;28;20060;-80
2023/07/05 07:58:50;;;;;;;2.08;1.25;;;;;;;;;;6222280;28;20425;-80
2023/07/05 08:01:51;;;;;;;3.72;1.40;;;;;;;;;;6215526;28;20112;-79
2023/07/05 08:04:53;;;;;;;2.30;1.48;;;;;;;;;;6215369;28;20053;-79
2023/07/05 08:07:55;;;;;;;2.65;1.20;;;;;;;;;;6212877;28;20053;-80
2023/07/05 08:10:57;;;;;;;4.97;1.73;;;;;;;;;;6218616;28;20132;-80
2023/07/05 08:13:58;;;;;;;2.60;1.42;;;;;;;;;;6214435;28;20080;-82
2023/07/05 08:17:01;;;;;;;3.63;1.70;;;;;;;;;;6219164;28;20076;-80
2023/07/05 08:20:03;;;;;;;6.83;1.63;;;;;;;;;;6220776;28;20146;-81
2023/07/05 08:23:06;;;;;;;3.17;1.35;;;;;;;;;;6225733;28;20046;-81
2023/07/05 08:26:08;;;;;;;3.42;1.40;;;;;;;;;;6224805;28;20114;-81
2023/07/05 08:29:09;;;;;;;2.87;1.70;;;;;;;;;;6214765;28;20038;-81
2023/07/05 08:32:11;;;;;;;2.05;1.40;;;;;;;;;;6215276;28;20048;-79
2023/07/05 08:35:13;;;;;;;2.72;1.70;;;;;;;;;;6206945;28;20500;-80
2023/07/05 08:38:18;;;;;;;2.50;1.50;;;;;;;;;;6209129;28;20051;-83
2023/07/05 08:41:31;;;;;;;3.15;1.52;;;;;;;;;;6211499;28;20041;-78
2023/07/05 08:44:38;;;;;;;1.92;1.25;;;;;;;;;;6206041;28;20152;-78
2023/07/05 08:47:47;;;;;;;2.17;1.38;;;;;;;;;;6207883;28;20045;-79
2023/07/05 08:50:56;;;;;;;3.15;1.38;;;;;;;;;;6223788;28;20045;-79
2023/07/05 08:54:16;;;;;;;3.47;1.10;;;;;;;;;;6209419;28;20053;-78
2023/07/05 08:57:25;;;;;;;2.58;1.00;;;;;;;;;;6207940;28;20105;-78
2023/07/05 09:00:45;;;;;;;3.10;1.17;;;;;;;;;;6206704;28;20049;-78
2023/07/05 09:03:46;;;;;;;1.35;0.90;;;;;;;;;;6206815;28;20125;-78
2023/07/05 09:07:32;;;;;;;1.63;1.08;;;;;;;;;;6208309;28;20106;-78
2023/07/05 09:10:41;;;;;;;1.80;1.20;;;;;;;;;;6147604;28;20050;-80
2023/07/05 09:13:43;;;;;;;1.77;1.00;;;;;;;;;;6207077;28;20052;-80
2023/07/05 09:17:12;;;;;;;1.77;1.10;;;;;;;;;;6208478;28;20050;-79
2023/07/05 09:20:49;;;;;;;1.77;1.38;;;;;;;;;;6207703;28;20057;-80
2023/07/05 09:24:17;;;;;;;2.15;1.00;;;;;;;;;;6208498;28;20057;-80
2023/07/05 09:27:31;;;;;;;2.65;1.13;;;;;;;;;;6213459;28;20042;-79
2023/07/05 09:30:34;;;;;;;2.00;1.20;;;;;;;;;;6209121;28;20049;-79
2023/07/05 09:33:39;;;;;;;;;;;;;;;;;;6214890;28;20050;-80
2023/07/05 09:36:42;;;;;;;1.90;1.10;;;;;;;;;;6209193;28;19925;-80
2023/07/05 09:40:22;;;;;;;3.03;1.40;;;;;;;;;;6211282;28;20049;-80
2023/07/05 09:43:34;;;;;;;1.30;0.90;;;;;;;;;;6203294;28;20496;-80
2023/07/05 09:46:37;;;;;;;3.97;1.10;;;;;;;;;;6208862;28;20132;-79
2023/07/05 09:49:39;;;;;;;;;;;;;;;;;;6209796;28;20057;-78
2023/07/05 09:52:42;;;;;;;1.58;0.90;;;;;;;;;;6209176;28;19922;-78
2023/07/05 09:56:06;;;;;;;;;;;;;;;;;;6211609;28;20443;-78
2023/07/05 09:59:16;;;;;;;1.33;0.77;;;;;;;;;;6207527;28;19929;-79
2023/07/05 10:02:23;;;;;;;1.42;0.80;;;;;;;;;;6210105;28;20037;-81
2023/07/05 10:05:30;;;;;;;1.50;0.80;;;;;;;;;;6208276;28;20496;-79
2023/07/05 10:08:32;;;;;;;1.20;0.80;;;;;;;;;;6201180;28;20184;-79
2023/07/05 10:11:34;;;;;;;1.58;0.85;;;;;;;;;;6215918;28;20065;-80
2023/07/05 10:14:36;;;;;;;2.13;0.80;;;;;;;;;;6206145;28;20050;-81
2023/07/05 10:17:44;;;;;;;1.20;0.85;;;;;;;;;;6216829;28;20545;-81
2023/07/05 10:20:47;;;;;;;1.27;0.90;;;;;;;;;;6212180;28;20090;-82
2023/07/05 10:23:49;;;;;;;1.15;0.68;;;;;;;;;;6192043;28;20053;-80
2023/07/05 10:26:51;;;;;;;2.67;1.15;;;;;;;;;;6219421;28;20503;-78
2023/07/05 10:30:14;;;;;;;2.08;0.90;;;;;;;;;;6232313;28;20050;-79
2023/07/05 10:33:27;;;;;;;1.50;0.90;;;;;;;;;;6199454;28;20528;-78
2023/07/05 10:36:29;;;;;;;3.28;1.23;;;;;;;;;;6198102;28;20049;-77
2023/07/05 10:39:31;;;;;;;0.70;0.63;;;;;;;;;;6198651;28;20496;-79
2023/07/05 10:42:35;;;;;;;2.45;0.80;;;;;;;;;;6228396;28;20109;-80
2023/07/05 10:45:37;;;;;;;8.05;5.53;;;;;;;;;;6170505;28;20056;-74
2023/07/05 10:48:42;;;;;;;3.50;1.58;;;;;;;;;;6204725;28;20082;-77
2023/07/05 10:51:53;;;;;;;5.13;3.28;;;;;;;;;;6207106;28;20034;-77
2023/07/05 10:55:11;;;;;;;1.73;0.90;;;;;;;;;;6201043;28;20202;-77
2023/07/05 10:58:16;;;;;;;2.45;1.20;;;;;;;;;;6203824;28;20042;-78
2023/07/05 11:01:35;;;;;;;3.42;1.20;;;;;;;;;;6184048;28;20420;-78
2023/07/05 11:04:42;;;;;;;1.42;0.93;;;;;;;;;;6205562;28;20056;-77
2023/07/05 11:07:45;;;;;;;2.03;1.00;;;;;;;;;;6207669;28;20707;-78
2023/07/05 11:10:47;;;;;;;;;;;;;;;;;;6207350;28;20061;-77
2023/07/05 11:13:51;;;;;;;2.20;1.15;;;;;;;;;;6205634;28;19933;-82
2023/07/05 11:16:54;;;;;;;4.22;1.20;;;;;;;;;;6201099;28;20050;-81
2023/07/05 11:19:56;;;;;;;3.10;1.20;;;;;;;;;;6176294;28;20061;-81
2023/07/05 11:22:57;;;;;;;2.97;1.13;;;;;;;;;;6200004;28;20053;-81
2023/07/05 11:26:01;;;;;;;3.40;1.40;;;;;;;;;;6218172;28;20041;-80
2023/07/05 11:29:25;;;;;;;4.30;1.10;;;;;;;;;;6203001;28;20738;-79
2023/07/05 11:32:48;;;;;;;1.70;1.00;;;;;;;;;;6226667;28;20046;-81
2023/07/05 11:36:20;;;;;;;2.40;1.10;;;;;;;;;;6221105;28;20042;-80
2023/07/05 11:39:32;;;;;;;1.90;0.90;;;;;;;;;;6213341;28;20377;-79
2023/07/05 11:42:37;;;;;;;5.90;1.10;;;;;;;;;;6219097;28;20080;-79
2023/07/05 11:45:48;;;;;;;3.97;1.27;;;;;;;;;;6229125;28;20104;-80
2023/07/05 11:48:50;;;;;;;5.18;1.45;;;;;;;;;;6222868;28;20037;-81
2023/07/05 11:52:04;;;;;;;3.38;0.90;;;;;;;;;;6225549;28;20042;-80
2023/07/05 11:55:13;;;;;;;4.32;1.20;;;;;;;;;;6220741;28;20046;-80
2023/07/05 11:58:28;;;;;;;2.50;1.13;;;;;;;;;;6219316;28;20058;-80
2023/07/05 12:01:35;;;;;;;2.85;1.25;;;;;;;;;;6234286;28;20069;-80
2023/07/05 12:04:39;;;;;;;2.58;1.40;;;;;;;;;;6214123;28;20057;-80
2023/07/05 12:07:43;;;;;;;7.10;1.65;;;;;;;;;;6217327;28;20042;-80
2023/07/05 12:10:54;;;;;;;3.95;1.52;;;;;;;;;;6221362;28;20059;-81
2023/07/05 12:14:05;;;;;;;5.60;1.30;;;;;;;;;;6219859;28;20081;-81
2023/07/05 12:17:14;;;;;;;6.60;1.20;;;;;;;;;;6213190;28;20045;-81
2023/07/05 12:20:21;;;;;;;2.72;1.55;;;;;;;;;;6216374;28;20045;-81
2023/07/05 12:23:25;;;;;;;3.53;1.23;;;;;;;;;;6218841;28;20042;-81
2023/07/05 12:26:36;;;;;;;5.28;1.30;;;;;;;;;;6214272;28;20049;-81
2023/07/05 12:29:39;;;;;;;2.13;1.13;;;;;;;;;;6209178;28;20058;-83
2023/07/05 12:32:48;;;;;;;3.78;1.38;;;;;;;;;;6214626;28;20102;-81
2023/07/05 12:36:15;;;;;;;3.17;1.38;;;;;;;;;;6214495;28;20046;-82
2023/07/05 12:39:18;;;;;;;5.35;1.58;;;;;;;;;;6210844;28;20046;-80
2023/07/05 12:42:20;;;;;;;4.18;1.40;;;;;;;;;;6208149;28;20072;-80
2023/07/05 12:45:25;;;;;;;2.85;1.42;;;;;;;;;;6212830;28;20041;-82
2023/07/05 12:48:29;;;;;;;2.78;1.50;;;;;;;;;;6219798;28;20050;-81
2023/07/05 12:51:30;;;;;;;3.33;1.65;;;;;;;;;;6217867;28;20154;-80
2023/07/05 12:54:32;;;;;;;4.07;1.60;;;;;;;;;;6236952;28;20077;-80
2023/07/05 12:57:34;;;;;;;4.85;1.75;;;;;;;;;;6220740;28;20054;-80
2023/07/05 13:00:39;;;;;;;2.57;1.47;;;;;;;;;;6212812;28;20064;-80
2023/07/05 13:03:46;;;;;;;3.00;1.50;;;;;;;;;;6218535;28;20445;-79
2023/07/05 13:06:54;;;;;;;3.60;1.65;;;;;;;;;;6199770;28;20496;-78
2023/07/05 13:10:01;;;;;;;4.22;1.80;;;;;;;;;;6211237;28;20447;-79
2023/07/05 13:13:24;;;;;;;4.00;1.77;;;;;;;;;;6217223;28;20363;-79
2023/07/05 13:16:47;;;;;;;4.38;1.63;;;;;;;;;;6211224;28;20045;-78
2023/07/05 13:20:11;;;;;;;3.47;1.30;;;;;;;;;;6206482;28;20042;-80
2023/07/05 13:23:12;;;;;;;2.92;1.55;;;;;;;;;;6214106;28;20259;-79
2023/07/05 13:26:30;;;;;;;8.43;2.30;;;;;;;;;;6193675;28;20106;-84
2023/07/05 13:29:36;;;;;;;3.80;1.80;;;;;;;;;;6203806;28;20163;-82
2023/07/05 13:32:40;;;;;;;7.70;1.77;;;;;;;;;;6197536;28;20043;-81
2023/07/05 13:35:42;;;;;;;9.88;2.30;;;;;;;;;;6200802;28;20557;-80
2023/07/05 13:38:44;;;;;;;4.32;1.55;;;;;;;;;;6214646;28;20088;-82
2023/07/05 13:41:50;;;;;;;3.30;1.63;;;;;;;;;;6216151;28;20295;-81
2023/07/05 13:44:52;;;;;;;2.17;1.42;;;;;;;;;;6214777;28;20034;-81
2023/07/05 13:47:55;;;;;;;3.03;1.55;;;;;;;;;;6220167;28;20077;-81
2023/07/05 13:50:57;;;;;;;5.00;1.60;;;;;;;;;;6217008;28;20073;-81
2023/07/05 13:54:00;;;;;;;3.60;1.70;;;;;;;;;;6199039;28;20131;-80
2023/07/05 13:57:04;;;;;;;2.08;1.52;;;;;;;;;;6182190;28;20053;-80
2023/07/05 14:00:09;;;;;;;5.10;1.85;;;;;;;;;;6198106;28;20046;-80
2023/07/05 14:03:13;;;;;;;4.32;1.55;;;;;;;;;;6219758;28;20053;-81
2023/07/05 14:06:19;;;;;;;4.10;1.63;;;;;;;;;;6221995;28;20049;-81
2023/07/05 14:09:21;;;;;;;4.65;2.10;;;;;;;;;;6213710;28;20524;-80
2023/07/05 14:12:24;;;;;;;2.50;1.50;;;;;;;;;;6215844;28;20086;-80
2023/07/05 14:15:25;;;;;;;5.90;1.58;;;;;;;;;;6205263;28;20050;-80
2023/07/05 14:18:27;;;;;;;2.13;1.50;;;;;;;;;;6217370;28;20045;-81
2023/07/05 14:21:34;;;;;;;2.55;1.30;;;;;;;;;;6218522;28;20052;-80
2023/07/05 14:24:36;;;;;;;2.58;1.38;;;;;;;;;;6215440;28;20054;-80
2023/07/05 14:27:38;;;;;;;3.92;1.50;;;;;;;;;;6190411;28;20054;-80
2023/07/05 14:30:41;;;;;;;4.88;1.40;;;;;;;;;;6205023;28;20141;-80
2023/07/05 14:33:42;;;;;;;3.08;1.40;;;;;;;;;;6216011;28;20125;-82
2023/07/05 14:36:44;;;;;;;5.05;1.60;;;;;;;;;;6207879;28;20049;-80
2023/07/05 14:39:46;;;;;;;3.70;1.60;;;;;;;;;;6207661;28;20324;-80
2023/07/05 14:42:48;;;;;;;3.72;1.90;;;;;;;;;;6209750;28;20050;-80
2023/07/05 14:45:49;;;;;;;3.38;1.50;;;;;;;;;;6206368;28;20054;-80
2023/07/05 14:48:51;;;;;;;3.00;1.40;;;;;;;;;;6207770;28;20113;-80
2023/07/05 14:51:53;;;;;;;4.32;1.60;;;;;;;;;;6187451;28;20135;-79
2023/07/05 14:54:55;;;;;;;3.25;1.30;;;;;;;;;;6196747;28;20121;-79
2023/07/05 14:57:57;;;;;;;3.97;1.45;;;;;;;;;;6201998;28;20747;-79
2023/07/05 15:00:59;;;;;;;2.85;1.50;;;;;;;;;;6197284;28;20042;-79
2023/07/05 15:04:01;;;;;;;3.33;1.40;;;;;;;;;;6198388;28;20080;-79
2023/07/05 15:07:13;;;;;;;1.20;1.10;;;;;;;;;;6202963;28;20049;-79
2023/07/05 15:10:15;;;;;;;4.77;1.57;;;;;;;;;;6218549;28;20068;-79
2023/07/05 15:13:20;;;;;;;4.30;1.30;;;;;;;;;;6201949;28;20046;-79
2023/07/05 15:16:22;;;;;;;2.78;1.20;;;;;;;;;;6208838;28;20053;-79
2023/07/05 15:19:24;;;;;;;4.13;1.70;;;;;;;;;;6211143;28;20069;-79
2023/07/05 15:22:25;;;;;;;2.97;1.55;;;;;;;;;;6209296;28;20136;-79
2023/07/05 15:25:27;;;;;;;3.20;1.60;;;;;;;;;;6206063;28;20508;-79
2023/07/05 15:28:28;;;;;;;2.63;1.40;;;;;;;;;;6202387;28;21100;-79
2023/07/05 15:31:30;;;;;;;4.30;1.48;;;;;;;;;;6202355;28;20073;-80
2023/07/05 15:34:32;;;;;;;3.60;1.20;;;;;;;;;;6201299;28;20050;-79
2023/07/05 15:37:43;;;;;;;4.13;1.48;;;;;;;;;;6198987;28;20136;-79
2023/07/05 15:40:45;;;;;;;2.45;1.45;;;;;;;;;;6202413;28;20053;-79
2023/07/05 15:43:47;;;;;;;2.70;1.30;;;;;;;;;;6195714;28;20053;-79
2023/07/05 15:46:48;;;;;;;3.90;1.40;;;;;;;;;;6200547;28;20127;-79
2023/07/05 15:49:50;;;;;;;1.90;1.35;;;;;;;;;;6200017;28;20257;-79
2023/07/05 15:52:52;;;;;;;2.10;1.35;;;;;;;;;;6202769;28;20465;-78
2023/07/05 15:55:54;;;;;;;2.95;1.40;;;;;;;;;;6198234;28;20212;-79
2023/07/05 15:59:02;;;;;;;2.43;1.33;;;;;;;;;;6202422;28;20110;-79
2023/07/05 16:02:09;;;;;;;3.10;1.48;;;;;;;;;;6198883;28;20045;-81
2023/07/05 16:05:11;;;;;;;4.25;1.25;;;;;;;;;;6194798;28;20050;-79
2023/07/05 16:08:13;;;;;;;4.25;1.60;;;;;;;;;;6205808;28;20038;-79
2023/07/05 16:11:15;;;;;;;3.03;1.40;;;;;;;;;;6213276;28;20052;-79
2023/07/05 16:14:17;;;;;;;;;;;;;;;;;;6194908;28;20046;-79
2023/07/05 16:17:19;;;;;;;3.25;1.25;;;;;;;;;;6210682;28;20020;-81
2023/07/05 16:20:22;;;;;;;2.85;1.48;;;;;;;;;;6183823;28;20046;-79
2023/07/05 16:23:24;;;;;;;1.30;1.00;;;;;;;;;;6202564;28;20050;-80
2023/07/05 16:26:28;;;;;;;4.10;1.30;;;;;;;;;;6205298;28;20450;-80
2023/07/05 16:29:29;;;;;;;4.47;1.30;;;;;;;;;;6206590;28;20049;-80
2023/07/05 16:32:31;;;;;;;2.55;1.60;;;;;;;;;;6207237;28;20491;-80
2023/07/05 16:35:33;;;;;;;3.08;1.30;;;;;;;;;;6207543;28;20056;-79
2023/07/05 16:38:35;;;;;;;2.67;1.40;;;;;;;;;;6207322;28;20066;-79
2023/07/05 16:41:39;;;;;;;4.60;1.58;;;;;;;;;;6200120;28;20133;-80
2023/07/05 16:44:41;;;;;;;3.42;1.60;;;;;;;;;;6202847;28;20054;-80
2023/07/05 16:47:43;;;;;;;1.95;1.45;;;;;;;;;;6202725;28;20515;-80
2023/07/05 16:50:48;;;;;;;2.88;1.60;;;;;;;;;;6209387;28;20038;-80
2023/07/05 16:53:54;;;;;;;2.22;1.40;;;;;;;;;;6202333;28;20049;-81
2023/07/05 16:56:59;;;;;;;1.63;1.30;;;;;;;;;;6218434;28;20041;-80
2023/07/05 17:00:01;;;;;;;2.55;1.60;;;;;;;;;;6212849;28;20048;-80
2023/07/05 17:03:05;;;;;;;3.43;1.80;;;;;;;;;;6206614;28;20053;-79
2023/07/05 17:06:09;;;;;;;1.75;1.42;;;;;;;;;;6193896;28;20037;-80
2023/07/05 17:09:10;;;;;;;4.00;1.60;;;;;;;;;;6212019;28;20049;-80
2023/07/05 17:12:12;;;;;;;4.00;1.75;;;;;;;;;;6206396;28;20049;-80
2023/07/05 17:15:14;;;;;;;3.58;1.45;;;;;;;;;;6212652;28;20073;-81
2023/07/05 17:18:16;;;;;;;3.30;1.80;;;;;;;;;;6204312;28;20493;-80
2023/07/05 17:21:18;;;;;;;3.15;1.85;;;;;;;;;;6210987;28;20050;-81
2023/07/05 17:24:22;;;;;;;3.92;1.60;;;;;;;;;;6218753;28;20060;-77
2023/07/05 17:27:24;;;;;;;3.42;1.70;;;;;;;;;;6208832;28;20528;-78
2023/07/05 17:30:26;;;;;;;3.50;1.80;;;;;;;;;;6214388;28;20392;-78
2023/07/05 17:33:27;;;;;;;2.88;2.03;;;;;;;;;;6213383;28;20128;-78
2023/07/05 17:36:29;;;;;;;3.78;2.00;;;;;;;;;;6211508;28;20478;-79
2023/07/05 17:39:31;;;;;;;2.65;1.60;;;;;;;;;;6211080;28;20137;-78
2023/07/05 17:42:33;;;;;;;5.82;1.88;;;;;;;;;;6215428;28;20053;-79
2023/07/05 17:45:35;;;;;;;4.22;1.95;;;;;;;;;;6175633;28;20145;-78
2023/07/05 17:48:37;;;;;;;4.65;1.75;;;;;;;;;;6205255;28;20507;-78
2023/07/05 17:51:39;;;;;;;2.33;1.63;;;;;;;;;;6212335;28;20057;-78
2023/07/05 17:54:42;;;;;;;4.00;1.92;;;;;;;;;;6211156;28;20317;-79
2023/07/05 17:57:45;;;;;;;6.18;1.85;;;;;;;;;;6209985;28;20069;-79
2023/07/05 18:00:48;;;;;;;3.25;1.70;;;;;;;;;;6206416;28;20052;-79
2023/07/05 18:03:51;;;;;;;3.55;1.92;;;;;;;;;;6208668;28;20618;-80
2023/07/05 18:06:53;;;;;;;3.70;1.80;;;;;;;;;;6210126;28;20046;-80
2023/07/05 18:09:58;;;;;;;3.10;1.83;;;;;;;;;;6205243;28;20045;-79
2023/07/05 18:13:02;;;;;;;2.22;1.73;;;;;;;;;;6208412;28;20127;-79
2023/07/05 18:16:13;;;;;;;2.40;1.67;;;;;;;;;;6167224;28;20050;-80
2023/07/05 18:19:16;;;;;;;4.15;1.90;;;;;;;;;;6200978;28;20038;-79
2023/07/05 18:22:18;;;;;;;3.75;1.98;;;;;;;;;;6210121;28;20052;-79
2023/07/05 18:25:21;;;;;;;4.03;2.00;;;;;;;;;;6209413;28;20045;-79
2023/07/05 18:28:25;;;;;;;2.65;1.90;;;;;;;;;;6222972;28;20050;-79